Time;durP1;ratioP1;P1;durP2;ratioP2;P2;SDS_P1;SDS_P2;PMS_P1;PMS_P2;Temp;Humidity;BMP_temperature;BMP_pressure;BME280_temperature;BME280_humidity;BME280_pressure;Samples;Min_cycle;Max_cycle;Signal;HPM_P1;HPM_P2
2023/06/17 00:01:35;;;;;;;8.95;6.38;;;17.80;67.50;;;;;;5051301;28;20021;-70
2023/06/17 00:04:04;;;;;;;9.35;6.40;;;17.70;67.60;;;;;;5050984;28;20032;-69
2023/06/17 00:06:58;;;;;;;8.38;6.90;;;17.70;67.70;;;;;;5051527;28;20056;-69
2023/06/17 00:09:27;;;;;;;8.05;6.22;;;17.70;67.60;;;;;;5021296;28;20090;-69
2023/06/17 00:11:56;;;;;;;9.45;7.15;;;17.70;67.70;;;;;;5050997;28;20100;-70
2023/06/17 00:14:53;;;;;;;10.93;6.55;;;17.70;67.70;;;;;;5050998;28;20018;-68
2023/06/17 00:17:22;;;;;;;8.45;6.15;;;17.60;67.60;;;;;;5050008;28;20045;-69
2023/06/17 00:19:48;;;;;;;10.27;6.30;;;17.60;67.60;;;;;;5048330;28;20103;-69
2023/06/17 00:25:11;;;;;;;7.28;6.32;;;17.60;67.70;;;;;;5039193;28;20059;-69
2023/06/17 00:27:40;;;;;;;7.95;6.53;;;17.60;67.80;;;;;;5048080;28;20387;-69
2023/06/17 00:30:10;;;;;;;8.40;6.40;;;17.60;67.80;;;;;;5046924;28;20383;-69
2023/06/17 00:32:36;;;;;;;13.88;7.25;;;17.50;67.80;;;;;;5049097;28;20020;-69
2023/06/17 00:35:04;;;;;;;11.73;7.05;;;17.50;67.80;;;;;;5031385;28;20029;-69
2023/06/17 00:37:33;;;;;;;10.90;6.45;;;17.50;67.80;;;;;;5032125;28;20029;-69
2023/06/17 00:40:05;;;;;;;8.68;6.85;;;17.50;67.80;;;;;;5052746;28;20028;-69
2023/06/17 00:42:37;;;;;;;11.68;6.07;;;17.50;67.80;;;;;;5053018;28;20013;-69
2023/06/17 00:45:03;;;;;;;7.55;5.80;;;17.50;67.90;;;;;;5037361;28;20029;-69
2023/06/17 00:47:32;;;;;;;7.78;6.32;;;17.50;68.00;;;;;;5036153;28;20043;-68
2023/06/17 00:49:58;;;;;;;6.95;5.28;;;17.50;68.40;;;;;;5036474;28;20456;-69
2023/06/17 00:52:25;;;;;;;9.15;6.18;;;17.50;68.30;;;;;;5055182;28;20488;-70
2023/06/17 00:54:56;;;;;;;12.32;6.70;;;17.50;68.50;;;;;;5055358;28;20075;-69
2023/06/17 00:57:29;;;;;;;9.65;5.70;;;17.50;68.40;;;;;;5053108;28;20099;-69
2023/06/17 00:59:57;;;;;;;5.80;5.15;;;17.50;68.20;;;;;;5034262;28;20091;-69
2023/06/17 01:02:25;;;;;;;8.95;7.30;;;17.60;68.10;;;;;;5043520;28;20021;-69
2023/06/17 01:04:52;;;;;;;9.07;6.25;;;17.60;68.00;;;;;;5033679;28;20145;-69
2023/06/17 01:07:47;;;;;;;8.40;6.75;;;17.60;67.90;;;;;;5017436;28;20072;-70
2023/06/17 01:10:42;;;;;;;8.95;7.22;;;17.60;67.90;;;;;;5016436;28;20029;-70
2023/06/17 01:13:11;;;;;;;;;;;17.60;67.80;;;;;;5035258;28;20535;-69
2023/06/17 01:15:38;;;;;;;8.57;6.47;;;17.60;67.40;;;;;;5035078;28;19911;-69
2023/06/17 01:18:07;;;;;;;9.77;6.90;;;17.70;67.60;;;;;;5016607;28;20401;-69
2023/06/17 01:20:33;;;;;;;9.68;6.82;;;17.70;67.80;;;;;;5034446;28;20087;-70
2023/06/17 01:23:07;;;;;;;7.15;6.05;;;17.70;67.90;;;;;;5033952;28;20030;-70
2023/06/17 01:25:37;;;;;;;8.93;6.05;;;17.70;68.10;;;;;;5035344;28;20033;-69
2023/06/17 01:28:15;;;;;;;8.00;6.50;;;17.70;68.10;;;;;;5050056;28;20031;-69
2023/06/17 01:30:47;;;;;;;8.32;6.65;;;17.80;68.10;;;;;;5054930;28;20431;-69
2023/06/17 01:33:15;;;;;;;8.15;6.25;;;17.80;68.00;;;;;;5036755;28;20099;-69
2023/06/17 01:35:59;;;;;;;8.23;6.68;;;17.90;68.00;;;;;;5036241;28;20037;-69
2023/06/17 01:38:53;;;;;;;15.35;6.97;;;17.90;67.80;;;;;;5053376;28;20043;-69
2023/06/17 01:41:26;;;;;;;7.30;6.15;;;17.90;67.70;;;;;;5054571;28;20485;-70
2023/06/17 01:43:57;;;;;;;8.20;6.30;;;17.90;67.60;;;;;;5054523;28;20033;-69
2023/06/17 01:46:24;;;;;;;11.98;6.38;;;18.00;67.60;;;;;;5036515;28;20044;-69
2023/06/17 01:48:59;;;;;;;12.05;7.10;;;18.00;67.60;;;;;;5036388;28;20035;-69
2023/06/17 01:51:27;;;;;;;10.45;6.68;;;18.00;67.50;;;;;;5035849;28;20021;-69
2023/06/17 01:54:00;;;;;;;9.30;6.78;;;18.00;67.40;;;;;;5054265;28;20040;-68
2023/06/17 01:56:28;;;;;;;8.85;7.18;;;18.00;67.30;;;;;;5054506;28;20025;-69
2023/06/17 01:58:57;;;;;;;10.02;6.60;;;18.00;67.30;;;;;;5035349;28;20041;-69
2023/06/17 02:01:26;;;;;;;9.30;7.53;;;18.00;67.30;;;;;;5054092;28;20229;-69
2023/06/17 02:03:52;;;;;;;9.70;6.88;;;18.10;67.20;;;;;;5054084;28;20029;-70
2023/06/17 02:06:18;;;;;;;9.98;7.30;;;18.10;67.20;;;;;;5053836;28;20021;-70
2023/06/17 02:08:45;;;;;;;11.25;6.70;;;18.10;67.20;;;;;;5053893;28;20490;-69
2023/06/17 02:11:22;;;;;;;10.25;7.65;;;18.10;67.10;;;;;;5035779;28;20127;-69
2023/06/17 02:13:51;;;;;;;10.80;7.65;;;18.10;67.10;;;;;;5052645;28;20067;-70
2023/06/17 02:16:19;;;;;;;10.68;6.78;;;18.10;67.10;;;;;;5035900;28;20515;-69
2023/06/17 02:18:47;;;;;;;8.40;7.15;;;18.10;67.20;;;;;;5035781;28;20037;-69
2023/06/17 02:21:12;;;;;;;8.15;6.80;;;18.10;67.20;;;;;;5052181;28;20037;-69
2023/06/17 02:23:38;;;;;;;10.48;7.50;;;18.10;67.10;;;;;;5053496;28;20104;-69
2023/06/17 02:26:06;;;;;;;9.45;7.43;;;18.10;67.00;;;;;;5052487;28;20504;-70
2023/06/17 02:28:34;;;;;;;11.32;7.50;;;18.10;66.90;;;;;;5052862;28;20114;-69
2023/06/17 02:31:05;;;;;;;9.68;7.32;;;18.10;66.90;;;;;;5053395;28;20112;-69
2023/06/17 02:33:36;;;;;;;9.20;7.05;;;18.10;66.80;;;;;;5035680;28;20036;-69
2023/06/17 02:36:02;;;;;;;10.25;7.03;;;18.10;66.80;;;;;;5053515;28;20036;-69
2023/06/17 02:38:32;;;;;;;8.00;6.78;;;18.10;66.80;;;;;;5035367;28;20033;-69
2023/06/17 02:40:58;;;;;;;9.13;6.85;;;18.10;66.80;;;;;;5035823;28;20025;-69
2023/06/17 02:43:29;;;;;;;10.73;7.03;;;18.10;66.80;;;;;;5053295;28;20103;-70
2023/06/17 02:45:57;;;;;;;8.57;6.30;;;18.10;66.80;;;;;;5053512;28;20049;-70
2023/06/17 02:48:28;;;;;;;8.60;7.07;;;18.10;66.90;;;;;;5053080;28;20032;-68
2023/06/17 02:51:01;;;;;;;10.65;7.32;;;18.10;66.90;;;;;;5053849;28;20467;-68
2023/06/17 02:53:32;;;;;;;7.87;6.23;;;18.10;66.90;;;;;;5053244;28;20029;-67
2023/06/17 02:56:17;;;;;;;9.70;6.38;;;18.10;66.80;;;;;;5053261;28;20384;-67
2023/06/17 02:58:49;;;;;;;7.88;6.30;;;18.10;67.00;;;;;;5037001;28;20037;-68
2023/06/17 03:01:31;;;;;;;10.18;6.57;;;18.10;67.20;;;;;;5034646;28;20163;-68
2023/06/17 03:04:01;;;;;;;8.02;6.30;;;18.10;67.10;;;;;;5031043;28;20400;-70
2023/06/17 03:06:33;;;;;;;7.18;6.05;;;18.10;67.00;;;;;;5044132;28;20021;-70
2023/06/17 03:09:08;;;;;;;10.73;7.40;;;18.10;67.00;;;;;;5050619;28;20361;-69
2023/06/17 03:11:39;;;;;;;10.73;7.38;;;18.10;67.10;;;;;;5052562;28;20021;-68
2023/06/17 03:14:13;;;;;;;20.08;8.43;;;18.10;66.80;;;;;;5034858;28;20518;-69
2023/06/17 03:16:44;;;;;;;7.97;6.75;;;18.10;66.60;;;;;;5052140;28;20025;-68
2023/06/17 03:19:15;;;;;;;8.65;7.20;;;18.20;66.70;;;;;;5052469;28;20469;-68
2023/06/17 03:21:51;;;;;;;9.55;7.25;;;18.20;66.40;;;;;;5052925;28;20091;-68
2023/06/17 03:24:22;;;;;;;16.38;7.93;;;18.20;66.30;;;;;;5052560;28;20108;-68
2023/06/17 03:26:53;;;;;;;8.82;6.75;;;18.10;66.20;;;;;;5052036;28;20048;-68
2023/06/17 03:29:24;;;;;;;6.78;6.07;;;18.10;66.60;;;;;;5052474;28;20031;-68
2023/06/17 03:31:57;;;;;;;8.82;6.40;;;18.10;66.70;;;;;;5052359;28;20029;-69
2023/06/17 03:34:24;;;;;;;8.05;6.45;;;18.10;66.80;;;;;;5034684;28;20185;-69
2023/06/17 03:36:59;;;;;;;15.48;6.30;;;18.20;66.90;;;;;;5052798;28;20107;-69
2023/06/17 03:39:33;;;;;;;9.02;6.80;;;18.20;67.00;;;;;;5052402;28;20099;-68
2023/06/17 03:42:01;;;;;;;10.07;7.53;;;18.20;66.90;;;;;;5034419;28;20037;-69
2023/06/17 03:44:40;;;;;;;10.52;7.05;;;18.20;66.80;;;;;;5034298;28;20531;-70
2023/06/17 03:47:06;;;;;;;8.13;6.88;;;18.20;66.90;;;;;;5034342;28;20068;-69
2023/06/17 03:49:37;;;;;;;8.52;6.20;;;18.20;66.80;;;;;;5034260;28;20032;-68
2023/06/17 03:52:11;;;;;;;8.35;6.55;;;18.30;66.80;;;;;;5034156;28;20123;-68
2023/06/17 03:54:39;;;;;;;16.80;6.53;;;18.30;66.60;;;;;;5034048;28;20029;-68
2023/06/17 03:57:07;;;;;;;8.32;6.30;;;18.30;66.40;;;;;;5051864;28;20037;-68
2023/06/17 03:59:37;;;;;;;8.63;6.28;;;18.40;66.30;;;;;;5051860;28;20079;-68
2023/06/17 04:02:06;;;;;;;12.40;7.00;;;18.40;66.30;;;;;;5052138;28;20082;-68
2023/06/17 04:04:34;;;;;;;9.02;6.53;;;18.40;66.40;;;;;;5052038;28;20376;-69
2023/06/17 04:07:08;;;;;;;6.85;5.78;;;18.40;65.90;;;;;;5051837;28;20025;-69
2023/06/17 04:09:36;;;;;;;6.63;5.43;;;18.40;66.00;;;;;;5033810;28;20036;-68
2023/06/17 04:12:05;;;;;;;10.77;5.75;;;18.40;65.90;;;;;;5051758;28;20036;-69
2023/06/17 04:14:41;;;;;;;7.22;5.47;;;18.50;65.90;;;;;;5033736;28;20021;-69
2023/06/17 04:17:13;;;;;;;6.38;5.43;;;18.50;65.80;;;;;;5051576;28;20476;-68
2023/06/17 04:19:41;;;;;;;6.25;5.10;;;18.60;65.90;;;;;;5051607;28;20032;-68
2023/06/17 04:22:16;;;;;;;7.97;5.03;;;18.60;65.70;;;;;;5051558;28;20484;-69
2023/06/17 04:24:47;;;;;;;10.73;5.90;;;18.70;65.70;;;;;;5051817;28;20021;-68
2023/06/17 04:27:21;;;;;;;6.93;4.85;;;18.70;65.60;;;;;;5047971;28;20036;-68
2023/06/17 04:29:56;;;;;;;7.05;5.22;;;18.70;65.60;;;;;;5033767;28;20035;-70
2023/06/17 04:32:26;;;;;;;9.82;5.90;;;18.80;65.70;;;;;;5051458;28;20035;-68
2023/06/17 04:34:54;;;;;;;6.82;6.10;;;18.90;65.70;;;;;;5033962;28;20124;-68
2023/06/17 04:37:28;;;;;;;6.63;5.75;;;18.90;65.70;;;;;;5051593;28;20033;-68
2023/06/17 04:39:59;;;;;;;6.15;5.28;;;18.90;65.70;;;;;;5052027;28;20051;-69
2023/06/17 04:42:33;;;;;;;9.50;6.10;;;19.00;65.70;;;;;;5034513;28;20091;-70
2023/06/17 04:45:04;;;;;;;;;;;19.10;65.90;;;;;;5052095;28;20021;-68
2023/06/17 04:47:35;;;;;;;8.60;5.43;;;19.10;65.70;;;;;;5051629;28;19905;-68
2023/06/17 04:50:06;;;;;;;6.40;5.43;;;19.20;64.90;;;;;;5051699;28;20074;-68
2023/06/17 04:52:39;;;;;;;8.38;5.85;;;19.30;64.40;;;;;;5051865;28;20517;-68
2023/06/17 04:55:15;;;;;;;7.20;6.10;;;19.30;63.90;;;;;;5050289;28;20021;-68
2023/06/17 04:57:46;;;;;;;7.18;5.30;;;19.30;63.80;;;;;;5043742;28;20034;-69
2023/06/17 05:00:20;;;;;;;8.20;5.22;;;19.40;63.90;;;;;;5043055;28;20464;-68
2023/06/17 05:02:51;;;;;;;;;;;19.40;63.80;;;;;;5033907;28;20037;-68
2023/06/17 05:05:20;;;;;;;9.30;5.75;;;19.50;64.10;;;;;;5051857;28;19947;-70
2023/06/17 05:07:50;;;;;;;6.97;5.38;;;19.50;63.00;;;;;;5051103;28;20029;-70
2023/06/17 05:10:20;;;;;;;7.05;5.60;;;19.60;62.80;;;;;;5033374;28;20063;-69
2023/06/17 05:12:49;;;;;;;7.35;5.75;;;19.60;62.70;;;;;;5051244;28;20092;-68
2023/06/17 05:15:25;;;;;;;7.45;5.55;;;19.60;62.40;;;;;;5051156;28;20025;-69
2023/06/17 05:18:04;;;;;;;7.60;5.40;;;19.60;62.40;;;;;;5051131;28;20037;-68
2023/06/17 05:20:38;;;;;;;6.60;4.95;;;19.70;62.60;;;;;;5050280;28;20033;-70
2023/06/17 05:23:09;;;;;;;8.80;5.60;;;19.70;62.50;;;;;;5048795;28;20028;-68
2023/06/17 05:25:39;;;;;;;8.13;5.70;;;19.80;62.60;;;;;;5052009;28;20033;-68
2023/06/17 05:28:11;;;;;;;7.10;5.28;;;19.90;62.80;;;;;;5051863;28;20024;-69
2023/06/17 05:30:47;;;;;;;8.05;5.53;;;19.90;62.40;;;;;;5052525;28;20484;-68
2023/06/17 05:33:16;;;;;;;9.10;5.10;;;20.00;62.20;;;;;;5059760;28;20118;-68
2023/06/17 05:35:49;;;;;;;7.47;5.88;;;20.00;61.60;;;;;;5046446;28;20031;-68
2023/06/17 05:38:23;;;;;;;8.00;5.72;;;20.00;61.10;;;;;;5044072;28;20044;-69
2023/06/17 05:40:59;;;;;;;7.25;5.22;;;20.00;60.90;;;;;;5061638;28;20086;-70
2023/06/17 05:43:28;;;;;;;6.10;5.35;;;19.90;60.90;;;;;;5057467;28;20123;-69
2023/06/17 05:46:08;;;;;;;8.95;5.97;;;19.90;60.80;;;;;;5059363;28;20044;-70
2023/06/17 05:48:44;;;;;;;6.50;5.55;;;19.90;60.70;;;;;;5057556;28;20116;-69
2023/06/17 05:51:20;;;;;;;6.68;5.85;;;19.90;61.10;;;;;;5061751;28;20469;-69
2023/06/17 05:53:50;;;;;;;8.68;5.70;;;20.00;61.30;;;;;;5056846;28;20043;-69
2023/06/17 05:56:33;;;;;;;12.05;6.00;;;20.00;61.20;;;;;;5051617;28;20056;-69
2023/06/17 05:59:06;;;;;;;7.90;5.68;;;20.10;61.80;;;;;;5049969;28;20037;-70
2023/06/17 06:01:41;;;;;;;8.55;5.38;;;20.20;61.00;;;;;;5058769;28;20029;-69
2023/06/17 06:04:15;;;;;;;5.75;5.10;;;20.30;60.90;;;;;;5061380;28;20024;-70
2023/06/17 06:06:54;;;;;;;6.75;5.63;;;20.40;60.80;;;;;;5059289;28;20021;-69
2023/06/17 06:09:28;;;;;;;7.53;4.85;;;20.50;60.50;;;;;;5043202;28;20036;-69
2023/06/17 06:11:59;;;;;;;;;;;20.60;60.30;;;;;;5046988;28;20025;-70
2023/06/17 06:14:38;;;;;;;12.63;5.57;;;20.70;60.80;;;;;;5065093;28;19904;-71
2023/06/17 06:17:08;;;;;;;7.40;5.70;;;20.80;59.80;;;;;;5062508;28;20109;-70
2023/06/17 06:19:45;;;;;;;5.57;4.60;;;20.90;59.80;;;;;;5059891;28;20029;-69
2023/06/17 06:22:21;;;;;;;10.52;5.60;;;21.00;59.80;;;;;;5052108;28;20033;-69
2023/06/17 06:24:51;;;;;;;5.90;4.72;;;21.00;59.50;;;;;;5062327;28;20044;-70
2023/06/17 06:27:25;;;;;;;8.82;5.30;;;21.20;59.30;;;;;;5060443;28;20028;-70
2023/06/17 06:30:05;;;;;;;8.38;4.82;;;21.30;58.50;;;;;;5042371;28;20052;-69
2023/06/17 06:32:39;;;;;;;5.72;4.95;;;21.50;58.80;;;;;;5043963;28;20115;-70
2023/06/17 06:35:10;;;;;;;6.47;4.50;;;21.70;58.50;;;;;;5063657;28;20029;-69
2023/06/17 06:37:41;;;;;;;5.45;4.00;;;21.90;58.10;;;;;;5059507;28;20021;-69
2023/06/17 06:40:14;;;;;;;5.80;4.10;;;22.00;57.70;;;;;;5062105;28;20384;-69
2023/06/17 06:42:46;;;;;;;;;;;22.20;57.50;;;;;;5059164;28;20025;-69
2023/06/17 06:45:19;;;;;;;5.78;3.83;;;22.40;58.50;;;;;;5047893;28;20343;-70
2023/06/17 06:47:56;;;;;;;5.60;4.20;;;22.50;56.60;;;;;;5058133;28;20032;-69
2023/06/17 06:50:35;;;;;;;4.90;3.90;;;22.70;56.40;;;;;;5059566;28;20486;-70
2023/06/17 06:53:08;;;;;;;6.13;4.07;;;22.80;56.00;;;;;;5060551;28;20032;-69
2023/06/17 06:55:36;;;;;;;7.07;4.28;;;23.00;55.70;;;;;;5059836;28;20115;-70
2023/06/17 06:58:04;;;;;;;7.05;4.32;;;23.10;55.10;;;;;;5061160;28;20037;-69
2023/06/17 07:00:39;;;;;;;5.35;4.32;;;23.20;55.30;;;;;;5041601;28;20028;-70
2023/06/17 07:03:10;;;;;;;6.10;4.75;;;23.30;54.90;;;;;;5052427;28;20042;-69
2023/06/17 07:05:41;;;;;;;5.68;4.43;;;23.30;54.80;;;;;;5058933;28;20468;-70
2023/06/17 07:08:16;;;;;;;5.72;4.35;;;23.40;54.80;;;;;;5040471;28;20111;-69
2023/06/17 07:10:51;;;;;;;4.80;4.13;;;23.50;53.90;;;;;;5052285;28;20033;-71
2023/06/17 07:13:19;;;;;;;5.80;4.47;;;23.60;53.90;;;;;;5034206;28;20037;-69
2023/06/17 07:15:45;;;;;;;5.53;4.28;;;23.70;54.20;;;;;;5051119;28;20071;-70
2023/06/17 07:18:22;;;;;;;4.80;4.07;;;23.80;53.70;;;;;;5051120;28;20478;-70
2023/06/17 07:20:53;;;;;;;8.90;5.47;;;23.80;53.40;;;;;;5050666;28;20025;-70
2023/06/17 07:23:32;;;;;;;6.90;4.97;;;23.90;52.60;;;;;;5051907;28;20028;-71
2023/06/17 07:26:05;;;;;;;6.70;4.75;;;23.90;52.40;;;;;;5034455;28;20120;-70
2023/06/17 07:28:45;;;;;;;7.10;4.82;;;24.00;52.50;;;;;;5051847;28;20031;-69
2023/06/17 07:31:21;;;;;;;4.45;4.03;;;24.10;52.70;;;;;;5051494;28;20532;-70
2023/06/17 07:33:55;;;;;;;7.32;4.38;;;24.20;52.50;;;;;;5052478;28;20071;-69
2023/06/17 07:36:31;;;;;;;4.20;3.80;;;24.30;52.20;;;;;;5052210;28;20025;-70
2023/06/17 07:39:03;;;;;;;4.28;3.88;;;24.50;52.40;;;;;;5050453;28;20044;-70
2023/06/17 07:41:34;;;;;;;5.75;4.43;;;24.60;52.00;;;;;;5052070;28;20028;-70
2023/06/17 07:44:08;;;;;;;8.38;5.10;;;24.70;51.90;;;;;;5051975;28;20025;-69
2023/06/17 07:46:36;;;;;;;5.00;4.15;;;24.80;51.10;;;;;;5033405;28;20124;-70
2023/06/17 07:49:07;;;;;;;5.85;4.03;;;24.90;51.20;;;;;;5051088;28;20072;-70
2023/06/17 07:51:40;;;;;;;8.95;4.38;;;25.00;50.50;;;;;;5052199;28;20051;-72
2023/06/17 07:54:15;;;;;;;5.47;4.10;;;25.10;50.40;;;;;;5034448;28;20037;-69
2023/06/17 07:56:46;;;;;;;5.15;4.60;;;25.20;50.70;;;;;;5052142;28;20027;-69
2023/06/17 07:59:21;;;;;;;5.70;4.82;;;25.30;50.20;;;;;;5050681;28;20037;-70
2023/06/17 08:01:52;;;;;;;6.22;4.97;;;25.40;50.00;;;;;;5034116;28;20033;-69
2023/06/17 08:04:28;;;;;;;6.97;4.75;;;25.50;49.80;;;;;;5032377;28;20025;-71
2023/06/17 08:07:02;;;;;;;8.70;5.50;;;25.70;50.00;;;;;;5031386;28;20021;-69
2023/06/17 08:09:30;;;;;;;8.18;5.88;;;25.80;49.00;;;;;;5032109;28;20132;-70
2023/06/17 08:12:04;;;;;;;7.32;6.00;;;25.90;48.00;;;;;;5030963;28;20036;-70
2023/06/17 08:14:35;;;;;;;;;;;26.00;47.70;;;;;;5031568;28;20116;-69
2023/06/17 08:17:08;;;;;;;10.25;5.97;;;26.00;49.80;;;;;;5014334;28;19905;-69
2023/06/17 08:19:40;;;;;;;6.45;5.22;;;26.00;47.90;;;;;;5031954;28;20033;-68
2023/06/17 08:22:17;;;;;;;6.40;5.25;;;25.90;48.10;;;;;;5030935;28;20087;-69
2023/06/17 08:24:47;;;;;;;7.43;5.80;;;25.90;48.20;;;;;;5032015;28;20057;-69
2023/06/17 08:27:20;;;;;;;7.00;5.90;;;25.80;48.20;;;;;;5031570;28;20468;-68
2023/06/17 08:29:51;;;;;;;9.48;6.72;;;25.70;48.20;;;;;;5030960;28;20124;-71
2023/06/17 08:32:22;;;;;;;7.65;5.63;;;25.60;48.00;;;;;;5032386;28;20124;-69
2023/06/17 08:34:53;;;;;;;10.18;5.97;;;25.50;48.60;;;;;;5031947;28;20399;-69
2023/06/17 08:37:26;;;;;;;8.23;5.53;;;25.50;48.50;;;;;;5030471;28;20029;-70
2023/06/17 08:39:54;;;;;;;7.78;5.90;;;25.40;48.30;;;;;;5014267;28;20087;-71
2023/06/17 08:42:27;;;;;;;7.95;5.72;;;25.40;47.80;;;;;;5044593;28;20090;-70
2023/06/17 08:45:01;;;;;;;6.53;5.60;;;25.30;47.80;;;;;;5033976;28;20029;-69
2023/06/17 08:47:37;;;;;;;;;;;25.20;48.10;;;;;;5052003;28;20515;-70
2023/06/17 08:50:12;;;;;;;9.05;6.10;;;25.20;48.90;;;;;;5051703;28;20042;-69
2023/06/17 08:52:44;;;;;;;6.43;5.82;;;25.00;48.40;;;;;;5051718;28;20029;-71
2023/06/17 08:55:22;;;;;;;7.22;5.55;;;24.90;48.90;;;;;;5051417;28;20017;-71
2023/06/17 08:57:56;;;;;;;10.23;4.85;;;24.90;49.20;;;;;;5033609;28;20037;-70
2023/06/17 09:00:29;;;;;;;17.17;5.60;;;24.80;49.70;;;;;;5052868;28;20083;-69
2023/06/17 09:03:09;;;;;;;6.87;5.00;;;24.70;48.90;;;;;;5045099;28;20071;-69
2023/06/17 09:05:37;;;;;;;9.88;5.68;;;24.70;49.30;;;;;;5055176;28;20032;-70
2023/06/17 09:08:11;;;;;;;7.25;5.40;;;24.70;48.60;;;;;;5055259;28;20187;-70
2023/06/17 09:10:43;;;;;;;;;;;24.60;48.10;;;;;;5055715;28;20028;-70
2023/06/17 09:13:12;;;;;;;8.38;5.68;;;24.70;49.40;;;;;;5037132;28;20355;-69
2023/06/17 09:15:48;;;;;;;9.27;6.40;;;24.70;48.60;;;;;;5055363;28;20024;-69
2023/06/17 09:18:19;;;;;;;6.90;4.75;;;24.70;48.60;;;;;;5054705;28;20036;-69
2023/06/17 09:20:56;;;;;;;8.82;4.65;;;24.70;48.70;;;;;;5055517;28;20083;-69
2023/06/17 09:23:27;;;;;;;6.88;5.40;;;24.80;48.80;;;;;;5054848;28;20033;-69
2023/06/17 09:26:07;;;;;;;6.13;4.85;;;24.90;48.70;;;;;;5037136;28;20074;-70
2023/06/17 09:28:37;;;;;;;5.10;4.55;;;24.90;48.80;;;;;;5054865;28;20020;-68
2023/06/17 09:31:09;;;;;;;4.38;3.92;;;25.00;48.60;;;;;;5054302;28;20025;-69
2023/06/17 09:33:34;;;;;;;6.80;4.80;;;25.10;48.90;;;;;;5036563;28;20098;-69
2023/06/17 09:36:04;;;;;;;5.88;5.20;;;25.20;48.60;;;;;;5054240;28;20021;-69
2023/06/17 09:38:42;;;;;;;6.53;5.10;;;25.30;48.10;;;;;;5053914;28;20041;-70
2023/06/17 09:41:15;;;;;;;9.00;5.20;;;25.40;48.20;;;;;;5051992;28;20353;-69
2023/06/17 09:43:53;;;;;;;5.68;4.80;;;25.50;47.90;;;;;;5033764;28;20024;-69
2023/06/17 09:46:35;;;;;;;5.80;4.35;;;25.50;47.90;;;;;;5051036;28;20108;-69
2023/06/17 09:49:25;;;;;;;5.13;4.20;;;25.50;47.60;;;;;;5033636;28;20384;-69
2023/06/17 09:52:05;;;;;;;6.38;4.32;;;25.60;47.90;;;;;;5034754;28;20182;-69
2023/06/17 09:54:42;;;;;;;5.55;4.88;;;25.70;47.80;;;;;;5051638;28;20575;-69
2023/06/17 09:57:14;;;;;;;7.47;5.80;;;25.70;47.20;;;;;;5054418;28;20032;-69
2023/06/17 09:59:43;;;;;;;8.05;5.50;;;25.70;46.40;;;;;;5053036;28;20033;-69
2023/06/17 10:02:12;;;;;;;7.18;4.90;;;25.80;46.60;;;;;;5053115;28;20025;-69
2023/06/17 10:04:46;;;;;;;11.00;4.88;;;25.80;46.10;;;;;;5054182;28;20047;-69
2023/06/17 10:07:14;;;;;;;10.85;5.28;;;25.90;46.20;;;;;;5036285;28;20059;-69
2023/06/17 10:09:45;;;;;;;6.28;4.80;;;25.90;46.00;;;;;;5036329;28;20100;-71
2023/06/17 10:12:17;;;;;;;11.52;5.80;;;25.90;45.40;;;;;;5053764;28;20017;-69
2023/06/17 10:14:43;;;;;;;8.63;5.47;;;26.00;44.50;;;;;;5053879;28;20032;-70
2023/06/17 10:17:14;;;;;;;6.88;4.95;;;26.00;44.50;;;;;;5035749;28;20029;-70
2023/06/17 10:19:49;;;;;;;8.32;5.65;;;26.10;45.40;;;;;;5054118;28;20094;-69
2023/06/17 10:22:23;;;;;;;8.10;5.50;;;26.10;45.30;;;;;;5053770;28;20086;-69
2023/06/17 10:24:54;;;;;;;7.75;5.30;;;26.10;44.60;;;;;;5053630;28;20028;-70
2023/06/17 10:27:22;;;;;;;7.95;5.97;;;26.20;44.00;;;;;;5035563;28;20063;-67
2023/06/17 10:29:50;;;;;;;10.55;5.60;;;26.20;44.30;;;;;;5053731;28;20079;-67
2023/06/17 10:32:27;;;;;;;8.48;5.38;;;26.20;44.60;;;;;;5033867;28;20025;-67
2023/06/17 10:35:09;;;;;;;10.93;5.50;;;26.20;44.40;;;;;;5015987;28;20022;-67
2023/06/17 10:37:50;;;;;;;5.53;4.70;;;26.20;44.50;;;;;;5031885;28;20036;-70
2023/06/17 10:40:25;;;;;;;5.85;4.78;;;26.20;43.80;;;;;;5035961;28;20032;-68
2023/06/17 10:43:18;;;;;;;6.38;5.20;;;26.20;44.00;;;;;;5053414;28;20115;-69
2023/06/17 10:45:57;;;;;;;6.22;4.85;;;26.20;44.30;;;;;;5053799;28;20043;-69
2023/06/17 10:48:36;;;;;;;11.05;5.28;;;26.20;43.80;;;;;;5053251;28;20032;-69
2023/06/17 10:51:09;;;;;;;7.47;5.53;;;26.20;43.40;;;;;;5053025;28;20472;-68
2023/06/17 10:53:45;;;;;;;;;;;26.20;43.60;;;;;;5035983;28;20365;-68
2023/06/17 10:56:13;;;;;;;7.32;5.57;;;26.30;45.00;;;;;;5052874;28;19905;-70
2023/06/17 10:58:47;;;;;;;10.48;5.95;;;26.40;44.20;;;;;;5034138;28;20403;-69
2023/06/17 11:01:13;;;;;;;6.25;5.03;;;26.40;43.90;;;;;;5035111;28;20025;-70
2023/06/17 11:03:44;;;;;;;6.30;4.75;;;26.40;44.20;;;;;;5050870;28;20025;-70
2023/06/17 11:06:13;;;;;;;5.45;4.68;;;26.50;43.30;;;;;;5035297;28;20036;-69
2023/06/17 11:08:41;;;;;;;8.75;5.03;;;26.50;42.50;;;;;;5052727;28;20095;-69
2023/06/17 11:11:13;;;;;;;10.23;5.20;;;26.60;41.80;;;;;;5035208;28;20048;-71
2023/06/17 11:13:51;;;;;;;7.00;4.70;;;26.60;41.70;;;;;;5052932;28;20029;-69
2023/06/17 11:16:25;;;;;;;6.75;4.93;;;26.70;42.20;;;;;;5052968;28;20029;-71
2023/06/17 11:18:56;;;;;;;7.00;5.15;;;26.80;41.30;;;;;;5034845;28;20443;-69
2023/06/17 11:21:30;;;;;;;6.10;4.53;;;26.80;41.50;;;;;;5052818;28;20037;-68
2023/06/17 11:24:01;;;;;;;5.63;4.75;;;26.90;41.30;;;;;;5052198;28;20594;-69
2023/06/17 11:26:33;;;;;;;6.43;4.60;;;27.00;41.10;;;;;;5052737;28;20029;-69
2023/06/17 11:29:08;;;;;;;5.82;4.78;;;27.00;41.60;;;;;;5052752;28;20036;-69
2023/06/17 11:31:42;;;;;;;4.75;4.25;;;27.10;40.80;;;;;;5052846;28;20025;-70
2023/06/17 11:34:14;;;;;;;5.32;4.50;;;27.20;41.10;;;;;;5051924;28;20032;-69
2023/06/17 11:36:57;;;;;;;6.78;4.50;;;27.30;41.10;;;;;;5053007;28;20052;-70
2023/06/17 11:39:49;;;;;;;6.40;4.53;;;27.30;41.10;;;;;;5053009;28;20025;-69
2023/06/17 11:42:25;;;;;;;8.55;5.07;;;27.40;40.90;;;;;;5052320;28;20103;-69
2023/06/17 11:44:56;;;;;;;6.78;4.47;;;27.40;39.80;;;;;;5052649;28;20033;-69
2023/06/17 11:47:37;;;;;;;7.47;4.60;;;27.40;39.40;;;;;;5052401;28;20048;-70
2023/06/17 11:50:09;;;;;;;4.90;3.72;;;27.50;38.20;;;;;;5052351;28;20025;-69
2023/06/17 11:52:57;;;;;;;4.78;3.90;;;27.40;35.60;;;;;;5052233;28;20140;-69
2023/06/17 11:55:35;;;;;;;4.50;3.80;;;27.40;35.40;;;;;;5052149;28;20078;-70
2023/06/17 11:58:12;;;;;;;7.93;4.05;;;27.40;35.60;;;;;;5052061;28;20039;-69
2023/06/17 12:00:47;;;;;;;4.05;3.50;;;27.40;35.40;;;;;;5052418;28;20028;-70
2023/06/17 12:03:17;;;;;;;6.95;4.57;;;27.40;34.70;;;;;;5045560;28;20358;-70
2023/06/17 12:05:48;;;;;;;5.35;3.50;;;27.40;34.20;;;;;;5032249;28;20021;-70
2023/06/17 12:08:26;;;;;;;5.38;4.13;;;27.40;35.10;;;;;;5032213;28;20029;-69
2023/06/17 12:10:59;;;;;;;5.90;4.13;;;27.40;33.20;;;;;;5032169;28;20026;-69
2023/06/17 12:13:42;;;;;;;4.55;3.88;;;27.40;34.30;;;;;;5030988;28;20477;-70
2023/06/17 12:16:47;;;;;;;6.38;4.22;;;27.40;35.10;;;;;;5032465;28;20380;-69
2023/06/17 12:19:28;;;;;;;8.48;4.38;;;27.50;35.10;;;;;;5031879;28;20037;-71
2023/06/17 12:22:08;;;;;;;5.10;4.10;;;27.50;34.30;;;;;;5032352;28;20053;-69
2023/06/17 12:24:44;;;;;;;5.88;4.50;;;27.60;35.10;;;;;;5031842;28;20060;-69
2023/06/17 12:27:14;;;;;;;4.80;3.97;;;27.60;34.90;;;;;;5031804;28;20033;-69
2023/06/17 12:29:44;;;;;;;12.95;5.15;;;27.60;35.10;;;;;;5031818;28;20033;-69
2023/06/17 12:32:18;;;;;;;6.20;5.10;;;27.70;34.20;;;;;;5014121;28;20029;-69
2023/06/17 12:34:44;;;;;;;8.57;4.93;;;27.70;35.20;;;;;;5034430;28;20037;-70
2023/06/17 12:37:22;;;;;;;6.03;4.50;;;27.80;35.00;;;;;;5018167;28;20496;-70
2023/06/17 12:39:52;;;;;;;5.35;4.53;;;27.80;35.40;;;;;;5035942;28;20107;-69
2023/06/17 12:42:21;;;;;;;6.10;4.03;;;27.80;34.00;;;;;;5018497;28;20202;-69
2023/06/17 12:45:00;;;;;;;12.35;4.28;;;27.90;33.50;;;;;;5038146;28;20029;-70
2023/06/17 12:47:33;;;;;;;5.20;4.25;;;28.00;33.90;;;;;;5037773;28;20021;-69
2023/06/17 12:50:06;;;;;;;9.88;4.40;;;28.10;33.00;;;;;;5055633;28;20481;-69
2023/06/17 12:52:49;;;;;;;4.28;3.63;;;28.10;30.90;;;;;;5055874;28;20474;-70
2023/06/17 12:55:17;;;;;;;5.13;4.20;;;28.10;31.80;;;;;;5037756;28;20163;-69
2023/06/17 12:57:43;;;;;;;9.30;4.13;;;28.20;32.00;;;;;;5055493;28;20041;-70
2023/06/17 13:00:10;;;;;;;9.43;4.32;;;28.30;32.30;;;;;;5055362;28;20376;-70
2023/06/17 13:02:42;;;;;;;9.35;4.57;;;28.30;32.20;;;;;;5055268;28;20032;-70
2023/06/17 13:05:12;;;;;;;5.07;4.38;;;28.40;30.50;;;;;;5048740;28;20383;-70
2023/06/17 13:07:39;;;;;;;4.95;4.07;;;28.50;31.60;;;;;;5055386;28;20021;-70
2023/06/17 13:10:08;;;;;;;6.00;4.63;;;28.60;30.20;;;;;;5055344;28;20029;-69
2023/06/17 13:13:33;;;;;;;5.28;4.65;;;28.70;30.60;;;;;;5037254;28;20029;-70
2023/06/17 13:16:45;;;;;;;6.55;4.63;;;28.80;31.40;;;;;;5054521;28;20069;-70
2023/06/17 13:20:09;;;;;;;11.80;4.28;;;28.90;30.70;;;;;;5033208;28;20392;-70
2023/06/17 13:22:38;;;;;;;9.73;5.60;;;29.10;30.10;;;;;;5037215;28;20037;-70